createdAt,value
2022-07-28T00:02:26.182Z,14.50
2022-07-28T00:04:52.893Z,14.50
2022-07-28T00:07:20.642Z,14.70
2022-07-28T00:09:47.314Z,14.60
2022-07-28T00:12:13.914Z,14.50
2022-07-28T00:14:40.845Z,14.50
2022-07-28T00:17:07.505Z,14.40
2022-07-28T00:19:34.399Z,14.50
2022-07-28T00:22:02.537Z,14.50
2022-07-28T00:24:29.387Z,14.50
2022-07-28T00:26:55.983Z,14.40
2022-07-28T00:29:22.598Z,14.60
2022-07-28T00:31:49.275Z,14.50
2022-07-28T00:34:16.873Z,14.60
2022-07-28T00:36:43.896Z,14.60
2022-07-28T00:39:10.513Z,14.60
2022-07-28T00:41:37.184Z,14.70
2022-07-28T00:44:06.273Z,14.70
2022-07-28T00:46:33.099Z,14.70
2022-07-28T00:48:59.923Z,14.70
2022-07-28T00:51:27.804Z,14.70
2022-07-28T00:53:55.281Z,14.70
2022-07-28T00:56:22.812Z,14.70
2022-07-28T00:58:49.789Z,14.70
2022-07-28T01:01:19.914Z,14.70
2022-07-28T01:03:59.523Z,14.60
2022-07-28T01:06:34.149Z,14.70
2022-07-28T01:09:45.065Z,14.60
2022-07-28T01:12:27.710Z,14.60
2022-07-28T01:15:06.773Z,14.60
2022-07-28T01:17:47.409Z,14.60
2022-07-28T01:20:22.985Z,14.60
2022-07-28T01:23:10.359Z,14.60
2022-07-28T01:26:18.892Z,14.50
2022-07-28T01:29:31.597Z,14.50
2022-07-28T01:32:08.508Z,14.50
2022-07-28T01:34:41.485Z,14.50
2022-07-28T01:37:13.539Z,14.50
2022-07-28T01:39:43.093Z,14.50
2022-07-28T01:42:13.255Z,14.40
2022-07-28T01:44:45.065Z,14.40
2022-07-28T01:47:12.966Z,14.40
2022-07-28T01:49:41.366Z,14.40
2022-07-28T01:52:09.243Z,14.30
2022-07-28T01:54:41.902Z,14.30
2022-07-28T01:57:14.363Z,14.20
2022-07-28T01:59:42.546Z,14.20
2022-07-28T02:02:10.414Z,14.20
2022-07-28T02:04:40.330Z,14.10
2022-07-28T02:07:08.977Z,14.20
2022-07-28T02:09:36.291Z,14.10
2022-07-28T02:12:04.505Z,14.10
2022-07-28T02:14:33.096Z,14.10
2022-07-28T02:17:04.178Z,14.10
2022-07-28T02:19:32.840Z,14.10
2022-07-28T02:22:02.585Z,14.00
2022-07-28T02:24:30.943Z,14.00
2022-07-28T02:27:24.486Z,14.10
2022-07-28T02:30:01.478Z,14.00
2022-07-28T02:32:33.949Z,13.90
2022-07-28T02:35:09.678Z,13.90
2022-07-28T02:37:39.791Z,13.70
2022-07-28T02:40:13.588Z,13.70
2022-07-28T02:42:41.759Z,13.60
2022-07-28T02:45:11.627Z,13.50
2022-07-28T02:47:44.387Z,13.50
2022-07-28T02:50:12.540Z,13.40
2022-07-28T02:52:43.669Z,13.40
2022-07-28T02:55:14.369Z,13.30
2022-07-28T02:57:42.488Z,13.20
2022-07-28T03:00:10.225Z,13.20
2022-07-28T03:02:39.286Z,13.10
2022-07-28T03:05:11.247Z,13.00
2022-07-28T03:07:43.798Z,13.00
2022-07-28T03:10:33.695Z,12.90
2022-07-28T03:13:03.224Z,12.90
2022-07-28T03:15:30.808Z,12.80
2022-07-28T03:17:57.487Z,12.70
2022-07-28T03:20:24.110Z,12.50
2022-07-28T03:22:50.727Z,12.40
2022-07-28T03:25:23.187Z,12.20
2022-07-28T03:27:52.661Z,12.10
2022-07-28T03:30:27.803Z,12.00
2022-07-28T03:32:57.061Z,11.90
2022-07-28T03:35:24.964Z,11.80
2022-07-28T03:38:10.229Z,11.80
2022-07-28T03:40:38.654Z,11.80
2022-07-28T03:43:08.482Z,11.80
2022-07-28T03:45:36.067Z,11.70
2022-07-28T03:48:03.759Z,11.70
2022-07-28T03:50:33.116Z,11.70
2022-07-28T03:53:02.903Z,11.60
2022-07-28T03:55:30.055Z,11.50
2022-07-28T03:57:59.717Z,11.50
2022-07-28T04:00:26.611Z,11.40
2022-07-28T04:02:53.310Z,11.40
2022-07-28T04:05:20.043Z,11.30
2022-07-28T04:07:47.146Z,11.30
2022-07-28T04:10:17.098Z,11.20
2022-07-28T04:12:47.313Z,11.10
2022-07-28T04:15:14.655Z,11.10
2022-07-28T04:17:44.463Z,11.10
2022-07-28T04:20:11.831Z,11.10
2022-07-28T04:22:38.445Z,11.10
2022-07-28T04:25:06.290Z,11.20
2022-07-28T04:27:35.283Z,11.30
2022-07-28T04:30:07.295Z,11.40
2022-07-28T04:32:34.191Z,11.60
2022-07-28T04:35:00.892Z,11.70
2022-07-28T04:37:27.577Z,11.70
2022-07-28T04:39:59.350Z,11.80
2022-07-28T04:42:26.086Z,12.00
2022-07-28T04:44:52.962Z,12.00
2022-07-28T04:47:19.708Z,12.10
2022-07-28T04:49:46.405Z,12.20
2022-07-28T04:52:13.154Z,12.20
2022-07-28T04:54:39.832Z,12.40
2022-07-28T04:57:10.259Z,12.50
2022-07-28T04:59:37.272Z,12.60
2022-07-28T05:02:04.161Z,12.80
2022-07-28T05:04:31.129Z,12.90
2022-07-28T05:06:57.798Z,13.00
2022-07-28T05:09:24.606Z,13.10
2022-07-28T05:11:51.266Z,13.30
2022-07-28T05:14:17.978Z,13.40
2022-07-28T05:16:44.873Z,13.60
2022-07-28T05:19:12.517Z,13.70
2022-07-28T05:21:39.121Z,13.80
2022-07-28T05:24:06.477Z,13.90
2022-07-28T05:26:33.113Z,14.00
2022-07-28T05:28:59.718Z,14.20
2022-07-28T05:31:26.431Z,14.30
2022-07-28T05:33:53.110Z,14.40
2022-07-28T05:36:19.702Z,14.60
2022-07-28T05:38:46.367Z,14.70
2022-07-28T05:41:13.222Z,14.80
2022-07-28T05:43:39.966Z,15.00
2022-07-28T05:46:07.090Z,15.00
2022-07-28T05:48:33.883Z,15.10
2022-07-28T05:51:01.274Z,15.20
2022-07-28T05:53:27.926Z,15.20
2022-07-28T05:56:01.064Z,15.30
2022-07-28T05:58:29.233Z,15.40
2022-07-28T06:01:02.412Z,15.50
2022-07-28T06:03:31.854Z,15.70
2022-07-28T06:06:14.300Z,15.80
2022-07-28T06:08:43.742Z,15.90
2022-07-28T06:11:11.505Z,16.10
2022-07-28T06:13:39.146Z,16.30
2022-07-28T06:16:12.668Z,16.40
2022-07-28T06:18:39.909Z,16.50
2022-07-28T06:21:06.513Z,16.50
2022-07-28T06:23:33.180Z,16.70
2022-07-28T06:26:00.379Z,16.60
2022-07-28T06:28:26.969Z,16.60
2022-07-28T06:30:53.590Z,16.50
2022-07-28T06:33:20.187Z,16.60
2022-07-28T06:35:51.105Z,16.50
2022-07-28T06:38:20.420Z,16.50
2022-07-28T06:40:48.610Z,16.40
2022-07-28T06:43:15.211Z,16.50
2022-07-28T06:45:41.896Z,16.40
2022-07-28T06:48:08.701Z,16.60
2022-07-28T06:50:36.411Z,16.50
2022-07-28T06:53:03.127Z,16.50
2022-07-28T06:55:35.426Z,16.60
2022-07-28T06:58:05.687Z,17.00
2022-07-28T07:00:33.900Z,17.50
2022-07-28T07:03:01.205Z,17.90
2022-07-28T07:05:31.825Z,18.20
2022-07-28T07:07:58.683Z,18.60
2022-07-28T07:10:25.504Z,19.20
2022-07-28T07:12:52.342Z,19.90
2022-07-28T07:15:18.976Z,19.90
2022-07-28T07:17:45.611Z,20.00
2022-07-28T07:20:14.121Z,20.00
2022-07-28T07:22:45.068Z,20.70
2022-07-28T07:25:14.151Z,21.40
2022-07-28T07:27:41.075Z,21.60
2022-07-28T07:30:09.008Z,21.30
2022-07-28T07:32:36.507Z,21.20
2022-07-28T07:35:04.414Z,21.60
2022-07-28T07:37:32.575Z,21.30
2022-07-28T07:40:00.707Z,21.50
2022-07-28T07:42:28.069Z,21.60
2022-07-28T07:44:55.259Z,22.00
2022-07-28T07:47:21.990Z,22.50
2022-07-28T07:49:48.842Z,22.30
2022-07-28T07:52:15.449Z,22.70
2022-07-28T07:54:42.283Z,23.00
2022-07-28T07:57:09.617Z,23.00
2022-07-28T07:59:36.558Z,23.20
2022-07-28T08:02:03.594Z,23.60
2022-07-28T08:04:30.458Z,23.80
2022-07-28T08:06:57.232Z,23.50
2022-07-28T08:09:24.104Z,22.90
2022-07-28T08:11:50.698Z,23.60
2022-07-28T08:14:18.008Z,23.60
2022-07-28T08:16:44.990Z,23.10
2022-07-28T08:19:11.843Z,23.30
2022-07-28T08:21:38.889Z,23.80
2022-07-28T08:24:06.315Z,24.30
2022-07-28T08:26:32.942Z,24.50
2022-07-28T08:28:59.569Z,24.40
2022-07-28T08:31:26.406Z,24.00
2022-07-28T08:33:54.754Z,24.10
2022-07-28T08:36:22.245Z,24.70
2022-07-28T08:38:48.874Z,25.30
2022-07-28T08:41:36.467Z,25.80
2022-07-28T08:44:04.100Z,26.30
2022-07-28T08:46:38.484Z,26.70
2022-07-28T08:49:09.770Z,27.10
2022-07-28T08:51:37.847Z,26.90
2022-07-28T08:54:05.917Z,26.80
2022-07-28T08:56:32.930Z,27.10
2022-07-28T08:59:00.856Z,27.50
2022-07-28T09:01:38.938Z,27.30
2022-07-28T09:04:08.694Z,27.70
2022-07-28T09:06:41.874Z,27.40
2022-07-28T09:09:11.545Z,27.40
2022-07-28T09:11:38.421Z,27.60
2022-07-28T09:14:05.804Z,27.60
2022-07-28T09:16:33.146Z,27.00
2022-07-28T09:18:59.919Z,27.40
2022-07-28T09:21:26.687Z,27.90
2022-07-28T09:23:53.342Z,28.00
2022-07-28T09:26:20.147Z,28.20
2022-07-28T09:28:57.464Z,28.60
2022-07-28T09:31:25.623Z,28.10
2022-07-28T09:34:00.842Z,28.30
2022-07-28T09:36:29.701Z,28.30
2022-07-28T09:38:56.830Z,27.60
2022-07-28T09:41:24.038Z,28.40
2022-07-28T09:43:55.411Z,28.90
2022-07-28T09:46:25.324Z,29.40
2022-07-28T09:48:59.335Z,29.20
2022-07-28T09:51:31.322Z,28.80
2022-07-28T09:54:13.051Z,29.40
2022-07-28T09:56:43.155Z,28.40
2022-07-28T09:59:11.128Z,28.60
2022-07-28T10:02:01.806Z,29.40
2022-07-28T10:04:34.517Z,28.10
2022-07-28T10:07:07.159Z,28.60
2022-07-28T10:09:34.179Z,29.00
2022-07-28T10:12:21.457Z,29.40
2022-07-28T10:14:50.344Z,29.70
2022-07-28T10:17:29.204Z,28.60
2022-07-28T10:19:59.482Z,28.90
2022-07-28T10:22:33.276Z,28.50
2022-07-28T10:25:09.663Z,29.10
2022-07-28T10:27:41.762Z,29.80
2022-07-28T10:30:09.112Z,30.00
2022-07-28T10:32:44.600Z,30.60
2022-07-28T10:35:16.422Z,31.30
2022-07-28T10:37:45.835Z,31.40
2022-07-28T10:40:15.129Z,31.20
2022-07-28T10:42:42.063Z,30.70
2022-07-28T10:45:11.464Z,29.90
2022-07-28T10:47:38.195Z,29.60
2022-07-28T10:50:05.414Z,30.40
2022-07-28T10:52:52.525Z,30.00
2022-07-28T10:55:40.750Z,29.50
2022-07-28T10:58:26.563Z,29.70
2022-07-28T11:00:56.603Z,30.20
2022-07-28T11:03:46.913Z,30.60
2022-07-28T11:06:36.708Z,31.40
2022-07-28T11:09:15.524Z,31.80
2022-07-28T11:11:46.010Z,31.10
2022-07-28T11:14:24.821Z,30.70
2022-07-28T11:17:15.602Z,30.40
2022-07-28T11:22:34.077Z,30.50
2022-07-28T11:25:20.879Z,29.30
2022-07-28T11:27:51.511Z,30.20
2022-07-28T11:30:28.712Z,31.50
2022-07-28T11:32:55.565Z,32.20
2022-07-28T11:35:26.387Z,32.50
2022-07-28T11:38:02.383Z,31.80
2022-07-28T11:40:49.530Z,31.80
2022-07-28T11:43:35.667Z,32.20
2022-07-28T11:46:09.920Z,31.50
2022-07-28T11:48:44.650Z,31.90
2022-07-28T11:51:12.682Z,32.20
2022-07-28T11:53:53.064Z,32.60
2022-07-28T11:56:37.253Z,33.00
2022-07-28T11:59:05.921Z,33.40
2022-07-28T12:01:36.844Z,34.20
2022-07-28T12:04:17.349Z,34.80
2022-07-28T12:06:51.378Z,35.40
2022-07-28T12:09:23.247Z,35.00
2022-07-28T12:11:55.449Z,35.10
2022-07-28T12:14:33.880Z,34.50
2022-07-28T12:17:03.936Z,34.30
2022-07-28T12:19:32.657Z,33.70
2022-07-28T12:21:59.749Z,33.80
2022-07-28T12:24:29.629Z,34.30
2022-07-28T12:26:57.774Z,33.90
2022-07-28T12:29:32.155Z,33.10
2022-07-28T12:32:05.424Z,33.30
2022-07-28T12:34:34.894Z,33.40
2022-07-28T12:37:04.383Z,33.50
2022-07-28T12:39:34.212Z,33.90
2022-07-28T12:42:09.657Z,33.70
2022-07-28T12:44:38.466Z,34.40
2022-07-28T12:47:08.049Z,34.70
2022-07-28T12:49:35.877Z,34.70
2022-07-28T12:52:21.744Z,33.90
2022-07-28T12:54:54.913Z,34.00
2022-07-28T12:57:50.376Z,33.70
2022-07-28T13:00:20.042Z,32.90
2022-07-28T13:02:47.656Z,33.00
2022-07-28T13:06:05.014Z,32.70
2022-07-28T13:08:44.561Z,34.00
2022-07-28T13:11:42.068Z,34.60
2022-07-28T13:14:00.121Z,35.10
2022-07-28T13:16:28.588Z,34.50
2022-07-28T13:19:02.616Z,33.90
2022-07-28T13:21:56.997Z,32.90
2022-07-28T13:24:26.030Z,32.50
2022-07-28T13:26:52.735Z,33.60
2022-07-28T13:29:19.651Z,34.20
2022-07-28T13:31:46.476Z,34.00
2022-07-28T13:34:13.751Z,33.90
2022-07-28T13:36:40.774Z,33.60
2022-07-28T13:39:10.299Z,33.50
2022-07-28T13:41:56.391Z,33.40
2022-07-28T13:44:23.916Z,32.50
2022-07-28T13:46:51.506Z,31.60
2022-07-28T13:49:21.500Z,31.00
2022-07-28T13:51:48.838Z,30.60
2022-07-28T13:54:18.708Z,30.50
2022-07-28T13:56:45.889Z,31.00
2022-07-28T13:59:13.645Z,30.70
2022-07-28T14:01:42.423Z,30.60
2022-07-28T14:04:14.870Z,30.30
2022-07-28T14:06:44.970Z,29.80
2022-07-28T14:09:13.587Z,28.90
2022-07-28T14:11:49.715Z,29.00
2022-07-28T14:14:24.790Z,29.40
2022-07-28T14:16:54.394Z,29.70
2022-07-28T14:19:38.308Z,29.50
2022-07-28T14:22:12.204Z,29.20
2022-07-28T14:24:40.976Z,29.00
2022-07-28T14:27:07.610Z,28.90
2022-07-28T14:29:34.239Z,28.80
2022-07-28T14:32:00.838Z,28.70
2022-07-28T14:34:27.442Z,28.70
2022-07-28T14:36:56.271Z,28.30
2022-07-28T14:39:22.862Z,28.40
2022-07-28T14:41:50.522Z,28.60
2022-07-28T14:44:24.302Z,28.70
2022-07-28T14:46:51.841Z,29.00
2022-07-28T14:49:18.841Z,28.90
2022-07-28T14:51:45.853Z,29.00
2022-07-28T14:54:13.096Z,29.20
2022-07-28T14:56:40.026Z,29.50
2022-07-28T14:59:06.642Z,29.60
2022-07-28T15:01:35.634Z,30.10
2022-07-28T15:04:03.510Z,30.80
2022-07-28T15:06:30.410Z,30.90
2022-07-28T15:08:58.539Z,30.90
2022-07-28T15:11:25.767Z,31.10
2022-07-28T15:13:52.395Z,31.30
2022-07-28T15:16:19.145Z,31.60
2022-07-28T15:18:45.871Z,31.40
2022-07-28T15:21:16.417Z,30.90
2022-07-28T15:23:43.740Z,31.40
2022-07-28T15:26:10.477Z,31.30
2022-07-28T15:28:37.123Z,31.40
2022-07-28T15:31:03.888Z,31.40
2022-07-28T15:33:38.945Z,31.00
2022-07-28T15:36:12.947Z,30.30
2022-07-28T15:38:40.207Z,29.50
2022-07-28T15:41:07.718Z,29.30
2022-07-28T15:43:34.418Z,29.10
2022-07-28T15:46:08.293Z,28.70
2022-07-28T15:48:36.830Z,28.50
2022-07-28T15:51:04.046Z,28.50
2022-07-28T15:53:30.714Z,28.60
2022-07-28T15:55:57.798Z,28.90
2022-07-28T15:58:26.533Z,29.00
2022-07-28T16:00:53.938Z,29.20
2022-07-28T16:03:24.605Z,29.20
2022-07-28T16:05:52.958Z,29.20
2022-07-28T16:08:22.999Z,29.30
2022-07-28T16:10:51.555Z,29.10
2022-07-28T16:13:31.180Z,28.80
2022-07-28T16:16:04.987Z,28.60
2022-07-28T16:18:31.940Z,28.70
2022-07-28T16:20:58.806Z,28.50
2022-07-28T16:23:25.425Z,28.40
2022-07-28T16:25:52.010Z,28.40
2022-07-28T16:28:18.648Z,28.10
2022-07-28T16:30:45.318Z,28.00
2022-07-28T16:33:12.028Z,28.00
2022-07-28T16:35:38.726Z,27.80
2022-07-28T16:38:06.210Z,27.80
2022-07-28T16:40:33.409Z,27.70
2022-07-28T16:43:03.357Z,27.60
2022-07-28T16:45:31.393Z,27.10
2022-07-28T16:47:58.714Z,27.00
2022-07-28T16:50:25.837Z,26.90
2022-07-28T16:52:54.013Z,26.90
2022-07-28T16:55:23.590Z,26.80
2022-07-28T16:57:50.880Z,26.80
2022-07-28T17:00:17.670Z,26.70
2022-07-28T17:02:44.802Z,26.60
2022-07-28T17:05:12.627Z,26.70
2022-07-28T17:07:45.834Z,26.30
2022-07-28T17:10:14.566Z,26.10
2022-07-28T17:12:41.255Z,26.00
2022-07-28T17:15:22.012Z,26.00
2022-07-28T17:17:49.149Z,25.90
2022-07-28T17:20:16.551Z,25.70
2022-07-28T17:22:44.418Z,25.80
2022-07-28T17:25:28.399Z,25.60
2022-07-28T17:27:57.907Z,25.60
2022-07-28T17:30:24.566Z,25.40
2022-07-28T17:32:52.918Z,25.20
2022-07-28T17:35:31.303Z,25.20
2022-07-28T17:38:01.827Z,25.00
2022-07-28T17:40:28.459Z,25.20
2022-07-28T17:42:55.082Z,25.10
2022-07-28T17:45:21.804Z,25.00
2022-07-28T17:47:48.496Z,25.10
2022-07-28T17:50:15.662Z,25.10
2022-07-28T17:52:43.350Z,25.00
2022-07-28T17:55:28.474Z,24.90
2022-07-28T17:58:08.153Z,24.90
2022-07-28T18:00:34.975Z,25.10
2022-07-28T18:03:01.617Z,25.10
2022-07-28T18:05:28.268Z,25.00
2022-07-28T18:07:59.082Z,25.00
2022-07-28T18:10:27.242Z,24.90
2022-07-28T18:12:54.013Z,24.70
2022-07-28T18:15:20.710Z,24.70
2022-07-28T18:17:55.396Z,24.70
2022-07-28T18:20:23.871Z,24.60
2022-07-28T18:22:50.718Z,24.50
2022-07-28T18:25:17.608Z,24.40
2022-07-28T18:27:44.229Z,24.40
2022-07-28T18:30:11.401Z,24.40
2022-07-28T18:32:38.085Z,24.40
2022-07-28T18:35:04.950Z,24.30
2022-07-28T18:37:31.561Z,24.20
2022-07-28T18:39:58.421Z,24.00
2022-07-28T18:42:25.277Z,23.80
2022-07-28T18:44:51.927Z,23.60
2022-07-28T18:47:18.566Z,23.50
2022-07-28T18:49:45.187Z,23.50
2022-07-28T18:52:11.775Z,23.40
2022-07-28T18:54:38.416Z,23.20
2022-07-28T18:57:05.154Z,23.10
2022-07-28T18:59:32.445Z,22.90
2022-07-28T19:01:59.163Z,22.90
2022-07-28T19:04:25.863Z,22.80
2022-07-28T19:06:52.523Z,22.70
2022-07-28T19:09:19.453Z,22.60
2022-07-28T19:11:46.767Z,22.40
2022-07-28T19:14:15.518Z,22.30
2022-07-28T19:16:43.675Z,22.20
2022-07-28T19:19:10.274Z,22.10
2022-07-28T19:21:37.158Z,22.00
2022-07-28T19:24:09.801Z,21.80
2022-07-28T19:26:36.428Z,21.70
2022-07-28T19:29:03.474Z,21.50
2022-07-28T19:31:30.147Z,21.40
2022-07-28T19:33:57.235Z,21.20
2022-07-28T19:36:23.951Z,21.10
2022-07-28T19:38:50.610Z,20.90
2022-07-28T19:41:17.347Z,21.00
2022-07-28T19:43:44.093Z,20.80
2022-07-28T19:46:11.194Z,20.80
2022-07-28T19:48:38.508Z,20.50
2022-07-28T19:51:05.456Z,20.40
2022-07-28T19:53:32.519Z,20.30
2022-07-28T19:56:01.747Z,20.30
2022-07-28T19:58:28.663Z,20.20
2022-07-28T20:00:56.533Z,20.10
2022-07-28T20:04:02.054Z,20.10
2022-07-28T20:06:10.132Z,20.00
2022-07-28T20:08:36.783Z,20.00
2022-07-28T20:11:03.446Z,20.00
2022-07-28T20:13:30.093Z,19.90
2022-07-28T20:15:56.729Z,19.80
2022-07-28T20:18:23.446Z,19.70
2022-07-28T20:20:50.080Z,19.70
2022-07-28T20:23:16.783Z,19.70
2022-07-28T20:25:45.182Z,19.70
2022-07-28T20:28:12.349Z,19.60
2022-07-28T20:30:39.491Z,19.50
2022-07-28T20:33:07.837Z,19.60
2022-07-28T20:35:34.455Z,19.60
2022-07-28T20:38:01.559Z,19.60
2022-07-28T20:40:28.342Z,19.60
2022-07-28T20:42:55.051Z,19.70
2022-07-28T20:45:21.826Z,19.60
2022-07-28T20:47:48.431Z,19.70
2022-07-28T20:50:15.654Z,19.70
2022-07-28T20:52:42.377Z,19.70
2022-07-28T20:55:11.266Z,19.80
2022-07-28T20:57:38.367Z,19.70
2022-07-28T21:00:06.194Z,19.80
2022-07-28T21:02:32.923Z,19.80
2022-07-28T21:04:59.629Z,19.60
2022-07-28T21:08:05.079Z,19.70
2022-07-28T21:10:13.691Z,19.60
2022-07-28T21:12:40.338Z,19.40
2022-07-28T21:15:08.562Z,19.40
2022-07-28T21:17:35.563Z,19.40
2022-07-28T21:20:02.374Z,19.30
2022-07-28T21:22:29.175Z,19.50
2022-07-28T21:24:56.114Z,19.40
2022-07-28T21:27:23.623Z,19.30
2022-07-28T21:32:17.401Z,19.30
2022-07-28T21:34:44.067Z,19.10
2022-07-28T21:37:12.668Z,19.20
2022-07-28T21:39:39.390Z,19.20
2022-07-28T21:42:08.351Z,19.10
2022-07-28T21:44:36.281Z,19.00
2022-07-28T21:47:03.068Z,19.00
2022-07-28T21:49:32.077Z,18.90
2022-07-28T21:51:58.769Z,19.00
2022-07-28T21:54:25.399Z,18.90
2022-07-28T21:56:52.064Z,18.90
2022-07-28T21:59:18.775Z,19.00
2022-07-28T22:01:45.479Z,18.80
2022-07-28T22:04:12.508Z,18.80
2022-07-28T22:06:39.235Z,18.80
2022-07-28T22:09:05.964Z,18.80
2022-07-28T22:11:32.605Z,18.80
2022-07-28T22:13:59.240Z,18.80
2022-07-28T22:16:26.009Z,18.70
2022-07-28T22:18:52.672Z,18.60
2022-07-28T22:21:19.276Z,18.70
2022-07-28T22:23:45.874Z,18.60
2022-07-28T22:26:12.618Z,18.60
2022-07-28T22:28:39.514Z,18.70
2022-07-28T22:31:09.596Z,18.60
2022-07-28T22:33:39.933Z,18.70
2022-07-28T22:36:08.613Z,18.60
2022-07-28T22:38:35.907Z,18.50
2022-07-28T22:41:02.777Z,18.40
2022-07-28T22:43:32.131Z,18.40
2022-07-28T22:45:58.905Z,18.50
2022-07-28T22:48:25.557Z,18.50
2022-07-28T22:50:52.281Z,18.50
2022-07-28T22:53:18.942Z,18.50
2022-07-28T22:55:45.591Z,18.40
2022-07-28T22:58:12.186Z,18.40
2022-07-28T23:00:39.132Z,18.40
2022-07-28T23:03:05.859Z,18.30
2022-07-28T23:05:33.927Z,18.20
2022-07-28T23:08:00.532Z,18.30
2022-07-28T23:10:28.958Z,18.20
2022-07-28T23:12:58.527Z,18.20
2022-07-28T23:15:40.884Z,18.20
2022-07-28T23:18:11.302Z,18.30
2022-07-28T23:20:39.252Z,18.20
2022-07-28T23:23:06.110Z,18.30
2022-07-28T23:25:33.499Z,18.20
2022-07-28T23:28:00.486Z,18.20
2022-07-28T23:30:27.116Z,18.40
2022-07-28T23:32:53.751Z,18.30
2022-07-28T23:35:20.342Z,18.10
2022-07-28T23:37:47.305Z,18.20
2022-07-28T23:40:14.029Z,18.00
2022-07-28T23:42:40.985Z,18.10
2022-07-28T23:45:08.322Z,18.00
2022-07-28T23:47:35.173Z,18.00
2022-07-28T23:50:02.831Z,18.10
2022-07-28T23:52:29.624Z,18.10
2022-07-28T23:54:56.478Z,18.10
2022-07-28T23:57:23.177Z,18.10
2022-07-28T23:59:49.872Z,18.20
